Westchester, New York
Current Conditions -  °F | °C
As of 5:51 AM on Sunday 26 Oct 2014 (Local Time) from KLGA Reporting Station
Scattered Clouds Scattered Clouds  
Wind Chill: 56°   Ceiling: Unl
Heat Index: 56°   Visibility: 10mi
Dew Point: 41°   Wind: 14mph
Humidity: 57%   Direction: 310°NW
Pressure: 29.61"   Gusts: 22mph
Location:  40.8469°N, 73.8398°W
Report Text: KLGA 260951Z 31012G19KT 10SM FEW050 SCT250 13/05 A2961 RMK AO2 SLP025 T01330050
Loading
Personal Weather Stations






























Interactive Weather Map
Tropical Storm Tracking
New forecast layout! Learn more

10-Day Weather Forecast

Advertisements
Track Severe Weather on mobile